createdAt,value
2022-12-25T00:01:16.439Z,99934.94
2022-12-25T00:03:43.614Z,99927.47
2022-12-25T00:06:11.095Z,99941.75
2022-12-25T00:08:39.587Z,99941.56
2022-12-25T00:11:09.461Z,99950.78
2022-12-25T00:13:36.830Z,99945.28
2022-12-25T00:16:16.090Z,99954.34
2022-12-25T00:18:44.857Z,99963.94
2022-12-25T00:21:12.599Z,99966.44
2022-12-25T00:23:40.017Z,99976.34
2022-12-25T00:26:09.352Z,99966.94
2022-12-25T00:28:36.347Z,99975.03
2022-12-25T00:31:15.521Z,99975.78
2022-12-25T00:33:44.176Z,99987.44
2022-12-25T00:36:12.109Z,99985.25
2022-12-25T00:38:40.193Z,99985.91
2022-12-25T00:41:09.714Z,99981.41
2022-12-25T00:43:38.492Z,99992.00
2022-12-25T00:46:07.003Z,99988.66
2022-12-25T00:48:35.324Z,99997.16
2022-12-25T00:51:05.647Z,99999.25
2022-12-25T00:53:33.498Z,100003.25
2022-12-25T00:56:03.466Z,100007.00
2022-12-25T00:58:32.197Z,100012.91
2022-12-25T01:00:59.618Z,100010.41
2022-12-25T01:03:27.016Z,100015.38
2022-12-25T01:06:00.127Z,100018.91
2022-12-25T01:08:30.574Z,100025.38
2022-12-25T01:11:00.113Z,100027.22
2022-12-25T01:13:28.155Z,100039.09
2022-12-25T01:15:55.256Z,100033.25
2022-12-25T01:18:24.220Z,100037.03
2022-12-25T01:20:51.826Z,100028.25
2022-12-25T01:23:18.763Z,100043.41
2022-12-25T01:25:45.856Z,100036.41
2022-12-25T01:28:13.078Z,100040.50
2022-12-25T01:30:40.038Z,100053.94
2022-12-25T01:33:07.224Z,100052.13
2022-12-25T01:35:34.236Z,100056.75
2022-12-25T01:38:01.922Z,100066.88
2022-12-25T01:40:28.883Z,100064.28
2022-12-25T01:42:56.047Z,100074.75
2022-12-25T01:45:34.400Z,100081.81
2022-12-25T01:48:06.063Z,100088.50
2022-12-25T01:50:34.545Z,100092.28
2022-12-25T01:53:02.419Z,100083.81
2022-12-25T01:55:29.906Z,100086.38
2022-12-25T01:57:57.130Z,100093.94
2022-12-25T02:00:24.192Z,100090.75
2022-12-25T02:02:51.220Z,100094.09
2022-12-25T02:05:28.872Z,100097.56
2022-12-25T02:07:58.116Z,100108.69
2022-12-25T02:10:25.327Z,100104.84
2022-12-25T02:12:53.160Z,100117.13
2022-12-25T02:16:05.843Z,100105.22
2022-12-25T02:18:54.016Z,100121.50
2022-12-25T02:22:05.993Z,100122.09
2022-12-25T02:25:08.089Z,100122.41
2022-12-25T02:27:54.566Z,100137.78
2022-12-25T02:30:22.259Z,100135.09
2022-12-25T02:33:18.554Z,100137.25
2022-12-25T02:35:52.584Z,100137.59
2022-12-25T02:38:25.527Z,100147.34
2022-12-25T02:40:57.804Z,100152.00
2022-12-25T02:43:50.552Z,100159.16
2022-12-25T02:46:40.853Z,100159.22
2022-12-25T02:49:40.899Z,100158.97
2022-12-25T02:52:32.149Z,100169.19
2022-12-25T02:55:25.831Z,100164.03
2022-12-25T02:58:14.618Z,100186.75
2022-12-25T03:01:05.429Z,100178.91
2022-12-25T03:03:55.126Z,100188.16
2022-12-25T03:06:43.442Z,100191.13
2022-12-25T03:09:40.345Z,100181.25
2022-12-25T03:12:24.785Z,100178.75
2022-12-25T03:15:10.559Z,100190.94
2022-12-25T03:17:37.690Z,100189.75
2022-12-25T03:20:25.836Z,100191.91
2022-12-25T03:23:12.889Z,100196.75
2022-12-25T03:25:58.728Z,100200.06
2022-12-25T03:28:25.830Z,100191.53
2022-12-25T03:31:11.211Z,100204.81
2022-12-25T03:34:15.563Z,100205.75
2022-12-25T03:37:13.510Z,100215.75
2022-12-25T03:39:55.201Z,100213.09
2022-12-25T03:43:02.029Z,100220.22
2022-12-25T03:46:08.066Z,100216.16
2022-12-25T03:48:59.632Z,100208.91
2022-12-25T03:51:51.367Z,100223.09
2022-12-25T03:54:41.758Z,100231.44
2022-12-25T03:57:28.900Z,100223.75
2022-12-25T04:00:14.547Z,100234.22
2022-12-25T04:03:00.258Z,100222.03
2022-12-25T04:05:45.871Z,100233.97
2022-12-25T04:08:31.484Z,100229.78
2022-12-25T04:11:17.091Z,100247.53
2022-12-25T04:14:02.774Z,100249.09
2022-12-25T04:16:48.373Z,100253.03
2022-12-25T04:19:34.058Z,100263.59
2022-12-25T04:22:19.973Z,100258.06
2022-12-25T04:25:05.542Z,100254.72
2022-12-25T04:27:51.261Z,100266.75
2022-12-25T04:30:36.971Z,100267.78
2022-12-25T04:33:22.675Z,100269.44
2022-12-25T04:36:08.863Z,100269.16
2022-12-25T04:38:36.510Z,100270.03
2022-12-25T04:41:04.381Z,100270.59
2022-12-25T04:43:31.316Z,100262.81
2022-12-25T04:46:00.414Z,100269.63
2022-12-25T04:48:29.946Z,100281.94
2022-12-25T04:50:57.167Z,100276.38
2022-12-25T04:53:24.287Z,100292.38
2022-12-25T04:55:51.292Z,100296.38
2022-12-25T04:58:18.363Z,100247.97
2022-12-25T05:00:45.286Z,100299.25
2022-12-25T05:03:12.367Z,100308.31
2022-12-25T05:05:40.818Z,100308.19
2022-12-25T05:08:07.920Z,100314.09
2022-12-25T05:10:35.028Z,100320.81
2022-12-25T05:13:01.919Z,100322.69
2022-12-25T05:15:28.890Z,100327.72
2022-12-25T05:17:55.793Z,100334.53
2022-12-25T05:20:22.735Z,100337.75
2022-12-25T05:22:49.722Z,100345.22
2022-12-25T05:25:16.704Z,100346.09
2022-12-25T05:27:46.521Z,100339.50
2022-12-25T05:30:17.397Z,100345.13
2022-12-25T05:32:44.328Z,100344.69
2022-12-25T05:35:11.343Z,100350.41
2022-12-25T05:37:38.352Z,100363.00
2022-12-25T05:40:06.035Z,100361.94
2022-12-25T05:42:33.105Z,100364.28
2022-12-25T05:45:00.009Z,100375.56
2022-12-25T05:47:26.925Z,100378.56
2022-12-25T05:49:53.905Z,100378.88
2022-12-25T05:52:20.866Z,100389.03
2022-12-25T05:54:47.738Z,100393.13
2022-12-25T05:57:14.651Z,100395.06
2022-12-25T05:59:41.611Z,100397.66
2022-12-25T06:02:08.773Z,100404.72
2022-12-25T06:04:36.286Z,100404.44
2022-12-25T06:07:03.280Z,100402.19
2022-12-25T06:09:30.280Z,100411.97
2022-12-25T06:11:57.198Z,100410.28
2022-12-25T06:14:24.302Z,100415.50
2022-12-25T06:16:53.107Z,100418.06
2022-12-25T06:19:21.067Z,100411.78
2022-12-25T06:21:48.851Z,100421.84
2022-12-25T06:24:21.013Z,100418.06
2022-12-25T06:26:48.898Z,100415.31
2022-12-25T06:29:16.037Z,100414.19
2022-12-25T06:31:43.249Z,100429.16
2022-12-25T06:34:10.517Z,100434.75
2022-12-25T06:36:38.393Z,100437.03
2022-12-25T06:39:05.458Z,100433.16
2022-12-25T06:41:32.427Z,100438.19
2022-12-25T06:44:01.614Z,100444.19
2022-12-25T06:46:30.169Z,100428.50
2022-12-25T06:48:58.875Z,100448.75
2022-12-25T06:51:28.694Z,100454.38
2022-12-25T06:53:56.538Z,100448.56
2022-12-25T06:56:26.020Z,100448.63
2022-12-25T06:58:55.488Z,100455.31
2022-12-25T07:01:27.123Z,100448.69
2022-12-25T07:03:58.434Z,100456.94
2022-12-25T07:06:25.615Z,100465.25
2022-12-25T07:08:53.017Z,100464.25
2022-12-25T07:11:21.040Z,100468.88
2022-12-25T07:13:48.086Z,100461.50
2022-12-25T07:16:15.748Z,100462.94
2022-12-25T07:18:43.256Z,100462.13
2022-12-25T07:21:18.841Z,100452.78
2022-12-25T07:23:48.002Z,100462.50
2022-12-25T07:26:15.499Z,100477.31
2022-12-25T07:28:42.455Z,100479.94
2022-12-25T07:31:18.061Z,100486.00
2022-12-25T07:33:45.603Z,100488.22
2022-12-25T07:36:13.505Z,100486.28
2022-12-25T07:38:42.360Z,100482.91
2022-12-25T07:41:10.473Z,100501.44
2022-12-25T07:43:37.508Z,100507.56
2022-12-25T07:46:06.031Z,100489.69
2022-12-25T07:48:33.148Z,100519.06
2022-12-25T07:51:02.924Z,100523.00
2022-12-25T07:53:29.932Z,100522.66
2022-12-25T07:56:08.548Z,100520.84
2022-12-25T07:58:35.755Z,100516.19
2022-12-25T08:01:16.761Z,100519.31
2022-12-25T08:03:44.542Z,100520.84
2022-12-25T08:06:12.080Z,100509.72
2022-12-25T08:08:40.345Z,100536.56
2022-12-25T08:11:09.762Z,100542.25
2022-12-25T08:13:37.175Z,100551.22
2022-12-25T08:16:08.043Z,100551.41
2022-12-25T08:18:36.406Z,100553.97
2022-12-25T08:21:05.181Z,100553.91
2022-12-25T08:23:35.244Z,100540.28
2022-12-25T08:26:05.305Z,100550.09
2022-12-25T08:28:33.854Z,100558.47
2022-12-25T08:31:10.329Z,100542.50
2022-12-25T08:33:38.097Z,100556.91
2022-12-25T08:36:07.765Z,100559.22
2022-12-25T08:38:35.419Z,100570.38
2022-12-25T08:41:02.618Z,100565.81
2022-12-25T08:43:29.552Z,100564.25
2022-12-25T08:45:56.821Z,100567.88
2022-12-25T08:48:24.011Z,100559.66
2022-12-25T08:50:52.882Z,100578.41
2022-12-25T08:53:20.475Z,100573.38
2022-12-25T08:55:47.792Z,100566.91
2022-12-25T08:58:16.475Z,100573.63
2022-12-25T09:00:43.414Z,100572.91
2022-12-25T09:03:10.527Z,100573.84
2022-12-25T09:05:38.573Z,100574.84
2022-12-25T09:08:05.520Z,100584.78
2022-12-25T09:10:36.539Z,100587.72
2022-12-25T09:13:05.126Z,100586.47
2022-12-25T09:15:32.243Z,100581.97
2022-12-25T09:17:59.315Z,100587.78
2022-12-25T09:20:26.381Z,100604.00
2022-12-25T09:22:53.273Z,100606.88
2022-12-25T09:25:20.190Z,100609.56
2022-12-25T09:27:47.134Z,100606.00
2022-12-25T09:30:14.200Z,100610.34
2022-12-25T09:32:41.097Z,100602.97
2022-12-25T09:35:09.071Z,100600.63
2022-12-25T09:37:36.514Z,100616.69
2022-12-25T09:40:04.248Z,100619.25
2022-12-25T09:42:34.457Z,100617.44
2022-12-25T09:45:06.073Z,100618.34
2022-12-25T09:47:38.409Z,100622.59
2022-12-25T09:50:34.771Z,100619.91
2022-12-25T09:53:07.817Z,100613.72
2022-12-25T09:55:43.545Z,100621.09
2022-12-25T09:58:13.359Z,100621.09
2022-12-25T10:00:58.822Z,100623.72
2022-12-25T10:03:44.713Z,100623.25
2022-12-25T10:06:20.143Z,100632.78
2022-12-25T10:08:52.928Z,100636.84
2022-12-25T10:11:35.139Z,100636.47
2022-12-25T10:14:39.310Z,100640.94
2022-12-25T10:17:46.940Z,100645.09
2022-12-25T10:20:49.220Z,100655.38
2022-12-25T10:23:37.204Z,100654.22
2022-12-25T10:26:12.073Z,100659.22
2022-12-25T10:28:43.887Z,100640.34
2022-12-25T10:31:20.802Z,100662.06
2022-12-25T10:33:53.686Z,100658.25
2022-12-25T10:36:26.935Z,100642.28
2022-12-25T10:38:55.089Z,100660.50
2022-12-25T10:41:59.508Z,100648.63
2022-12-25T10:44:26.706Z,100659.63
2022-12-25T10:46:58.692Z,100641.31
2022-12-25T10:49:31.678Z,100660.59
2022-12-25T10:51:58.703Z,100648.81
2022-12-25T10:54:27.284Z,100657.22
2022-12-25T10:57:00.926Z,100666.69
2022-12-25T10:59:34.130Z,100659.16
2022-12-25T11:02:19.764Z,100663.19
2022-12-25T11:04:47.236Z,100656.81
2022-12-25T11:07:20.322Z,100671.13
2022-12-25T11:09:55.451Z,100669.44
2022-12-25T11:12:42.221Z,100678.19
2022-12-25T11:15:57.501Z,100673.66
2022-12-25T11:18:27.386Z,100681.19
2022-12-25T11:20:58.264Z,100671.13
2022-12-25T11:23:27.797Z,100679.44
2022-12-25T11:26:00.194Z,100681.03
2022-12-25T11:28:29.157Z,100682.84
2022-12-25T11:31:19.868Z,100687.66
2022-12-25T11:34:07.671Z,100690.88
2022-12-25T11:36:46.851Z,100689.81
2022-12-25T11:39:25.534Z,100697.72
2022-12-25T11:41:58.224Z,100696.94
2022-12-25T11:44:43.933Z,100697.84
2022-12-25T11:47:21.899Z,100702.22
2022-12-25T11:50:01.428Z,100691.84
2022-12-25T11:52:36.681Z,100702.97
2022-12-25T11:55:15.561Z,100700.28
2022-12-25T11:57:45.688Z,100713.97
2022-12-25T12:00:16.018Z,100705.38
2022-12-25T12:03:07.114Z,100711.34
2022-12-25T12:05:46.866Z,100711.34
2022-12-25T12:08:14.591Z,100710.16
2022-12-25T12:11:23.983Z,100709.94
2022-12-25T12:13:53.595Z,100722.69
2022-12-25T12:16:20.794Z,100722.53
2022-12-25T12:18:50.498Z,100727.06
2022-12-25T12:21:17.778Z,100737.41
2022-12-25T12:24:03.090Z,100741.78
2022-12-25T12:26:34.866Z,100742.50
2022-12-25T12:29:03.556Z,100734.63
2022-12-25T12:31:47.390Z,100737.63
2022-12-25T12:34:42.629Z,100741.59
2022-12-25T12:37:27.458Z,100743.94
2022-12-25T12:39:55.808Z,100729.28
2022-12-25T12:42:28.117Z,100693.31
2022-12-25T12:44:58.374Z,100736.75
2022-12-25T12:47:40.553Z,100742.94
2022-12-25T12:50:38.110Z,100747.56
2022-12-25T12:53:24.121Z,100744.59
2022-12-25T12:55:52.694Z,100741.06
2022-12-25T12:58:33.889Z,100739.66
2022-12-25T13:01:13.640Z,100757.78
2022-12-25T13:04:16.569Z,100760.22
2022-12-25T13:06:58.486Z,100772.88
2022-12-25T13:09:30.909Z,100775.41
2022-12-25T13:11:57.949Z,100773.91
2022-12-25T13:14:25.617Z,100775.94
2022-12-25T13:16:54.464Z,100781.50
2022-12-25T13:19:27.604Z,100759.72
2022-12-25T13:22:03.947Z,100781.81
2022-12-25T13:24:37.606Z,100780.44
2022-12-25T13:27:25.866Z,100777.91
2022-12-25T13:29:52.898Z,100763.06
2022-12-25T13:32:24.969Z,100779.16
2022-12-25T13:34:52.776Z,100782.06
2022-12-25T13:37:23.032Z,100788.22
2022-12-25T13:39:53.001Z,100789.16
2022-12-25T13:42:22.791Z,100776.84
2022-12-25T13:45:02.527Z,100796.13
2022-12-25T13:47:34.916Z,100806.34
2022-12-25T13:50:13.627Z,100793.50
2022-12-25T13:52:40.976Z,100805.53
2022-12-25T13:55:21.078Z,100789.75
2022-12-25T13:57:53.925Z,100807.47
2022-12-25T14:00:31.175Z,100816.34
2022-12-25T14:02:59.078Z,100808.91
2022-12-25T14:05:39.688Z,100808.38
2022-12-25T14:08:19.418Z,100810.19
2022-12-25T14:10:50.720Z,100803.91
2022-12-25T14:13:20.922Z,100823.56
2022-12-25T14:15:49.546Z,100815.97
2022-12-25T14:18:18.534Z,100820.34
2022-12-25T14:21:06.174Z,100810.25
2022-12-25T14:23:42.239Z,100808.66
2022-12-25T14:26:26.351Z,100800.44
2022-12-25T14:28:57.783Z,100811.53
2022-12-25T14:31:25.225Z,100828.78
2022-12-25T14:33:54.247Z,100819.50
2022-12-25T14:36:21.966Z,100821.38
2022-12-25T14:39:04.355Z,100832.41
2022-12-25T14:41:39.337Z,100828.97
2022-12-25T14:44:28.411Z,100848.78
2022-12-25T14:47:25.440Z,100846.22
2022-12-25T14:49:54.677Z,100855.66
2022-12-25T14:52:31.344Z,100847.97
2022-12-25T14:55:01.841Z,100854.78
2022-12-25T14:57:35.011Z,100845.47
2022-12-25T15:00:24.344Z,100845.41
2022-12-25T15:02:53.709Z,100855.72
2022-12-25T15:05:33.504Z,100848.03
2022-12-25T15:08:03.305Z,100853.22
2022-12-25T15:13:18.276Z,100855.81
2022-12-25T15:16:16.297Z,100844.75
2022-12-25T15:18:45.822Z,100853.28
2022-12-25T15:21:25.832Z,100853.31
2022-12-25T15:23:54.696Z,100861.84
2022-12-25T15:26:22.001Z,100840.75
2022-12-25T15:28:49.286Z,100857.50
2022-12-25T15:31:25.225Z,100859.28
2022-12-25T15:33:53.876Z,100841.63
2022-12-25T15:36:21.803Z,100842.44
2022-12-25T15:38:49.160Z,100856.75
2022-12-25T15:41:53.891Z,100868.69
2022-12-25T15:44:21.716Z,100866.13
2022-12-25T15:46:48.998Z,100865.28
2022-12-25T15:49:17.013Z,100868.47
2022-12-25T15:51:44.804Z,100866.63
2022-12-25T15:54:11.984Z,100879.22
2022-12-25T15:56:49.101Z,100883.28
2022-12-25T15:59:18.492Z,100889.06
2022-12-25T16:01:49.415Z,100880.25
2022-12-25T16:04:16.596Z,100888.41
2022-12-25T16:06:43.872Z,100895.03
2022-12-25T16:09:15.296Z,100893.22
2022-12-25T16:11:42.752Z,100888.84
2022-12-25T16:14:10.052Z,100892.03
2022-12-25T16:16:37.388Z,100902.00
2022-12-25T16:19:04.817Z,100898.34
2022-12-25T16:21:41.227Z,100904.09
2022-12-25T16:24:08.613Z,100902.22
2022-12-25T16:26:35.770Z,100901.44
2022-12-25T16:29:07.497Z,100905.41
2022-12-25T16:31:36.223Z,100904.56
2022-12-25T16:34:04.894Z,100902.72
2022-12-25T16:36:32.031Z,100899.59
2022-12-25T16:38:59.022Z,100897.50
2022-12-25T16:41:26.183Z,100896.53
2022-12-25T16:43:53.269Z,100903.34
2022-12-25T16:46:23.050Z,100910.25
2022-12-25T16:48:50.470Z,100916.03
2022-12-25T16:51:19.644Z,100920.34
2022-12-25T16:53:47.309Z,100921.91
2022-12-25T16:56:20.787Z,100920.22
2022-12-25T16:58:48.295Z,100931.28
2022-12-25T17:01:20.935Z,100929.53
2022-12-25T17:03:49.124Z,100922.66
2022-12-25T17:06:24.376Z,100923.34
2022-12-25T17:08:55.540Z,100924.88
2022-12-25T17:11:27.377Z,100930.75
2022-12-25T17:13:54.663Z,100925.44
2022-12-25T17:16:25.140Z,100928.78
2022-12-25T17:19:04.472Z,100927.94
2022-12-25T17:21:35.258Z,100891.31
2022-12-25T17:24:04.163Z,100935.94
2022-12-25T17:26:32.550Z,100932.44
2022-12-25T17:29:00.375Z,100941.03
2022-12-25T17:31:27.755Z,100935.06
2022-12-25T17:33:54.992Z,100927.50
2022-12-25T17:36:22.773Z,100926.72
2022-12-25T17:38:49.798Z,100937.66
2022-12-25T17:41:18.490Z,100951.19
2022-12-25T17:43:46.240Z,100947.94
2022-12-25T17:46:15.356Z,100950.41
2022-12-25T17:48:43.104Z,100949.00
2022-12-25T17:51:13.127Z,100946.56
2022-12-25T17:53:42.410Z,100946.66
2022-12-25T17:56:10.737Z,100947.63
2022-12-25T17:58:38.726Z,100947.88
2022-12-25T18:01:11.834Z,100951.41
2022-12-25T18:03:39.499Z,100946.50
2022-12-25T18:06:08.656Z,100961.75
2022-12-25T18:08:39.654Z,100959.44
2022-12-25T18:11:10.837Z,100948.63
2022-12-25T18:13:38.019Z,100960.59
2022-12-25T18:16:07.347Z,100958.28
2022-12-25T18:18:35.108Z,100959.25
2022-12-25T18:21:02.411Z,100962.81
2022-12-25T18:23:29.812Z,100964.63
2022-12-25T18:26:00.514Z,100962.06
2022-12-25T18:28:27.520Z,100971.56
2022-12-25T18:30:54.444Z,100978.38
2022-12-25T18:33:21.450Z,100975.81
2022-12-25T18:35:48.478Z,100981.34
2022-12-25T18:38:15.386Z,100982.06
2022-12-25T18:40:47.201Z,100984.63
2022-12-25T18:43:15.169Z,100986.44
2022-12-25T18:45:42.699Z,100993.31
2022-12-25T18:48:11.085Z,100993.41
2022-12-25T18:50:40.581Z,100993.31
2022-12-25T18:53:07.949Z,100995.94
2022-12-25T18:55:35.717Z,101001.03
2022-12-25T18:58:02.893Z,100984.84
2022-12-25T19:00:29.927Z,101003.53
2022-12-25T19:02:59.103Z,101006.97
2022-12-25T19:05:26.504Z,101003.81
2022-12-25T19:07:53.517Z,101006.38
2022-12-25T19:10:20.441Z,101001.34
2022-12-25T19:12:47.519Z,101008.13
2022-12-25T19:15:14.831Z,101016.69
2022-12-25T19:17:41.862Z,101015.84
2022-12-25T19:20:09.269Z,101021.88
2022-12-25T19:22:36.306Z,101021.88
2022-12-25T19:25:03.621Z,101023.53
2022-12-25T19:27:30.598Z,101022.75
2022-12-25T19:29:57.532Z,101030.56
2022-12-25T19:32:25.394Z,101028.09
2022-12-25T19:34:52.413Z,101033.19
2022-12-25T19:37:19.361Z,101035.84
2022-12-25T19:39:46.872Z,101035.06
2022-12-25T19:42:16.313Z,101046.31
2022-12-25T19:44:43.588Z,101045.50
2022-12-25T19:47:11.152Z,101032.81
2022-12-25T19:49:39.198Z,101037.97
2022-12-25T19:52:08.311Z,101038.09
2022-12-25T19:54:35.290Z,101041.56
2022-12-25T19:57:02.223Z,101027.97
2022-12-25T19:59:29.181Z,101044.00
2022-12-25T20:01:56.314Z,101039.72
2022-12-25T20:04:23.380Z,101043.06
2022-12-25T20:06:50.351Z,101035.53
2022-12-25T20:09:21.475Z,101038.09
2022-12-25T20:11:49.148Z,101028.72
2022-12-25T20:14:16.883Z,101040.66
2022-12-25T20:16:44.478Z,101039.81
2022-12-25T20:19:13.231Z,101021.25
2022-12-25T20:21:40.736Z,101042.34
2022-12-25T20:24:11.571Z,101045.78
2022-12-25T20:26:39.200Z,101040.69
2022-12-25T20:29:06.847Z,101045.84
2022-12-25T20:31:34.984Z,101045.03
2022-12-25T20:34:11.220Z,101046.75
2022-12-25T20:36:38.568Z,101039.16
2022-12-25T20:39:09.485Z,101042.97
2022-12-25T20:41:37.199Z,101049.47
2022-12-25T20:44:06.557Z,101007.97
2022-12-25T20:46:33.827Z,101049.91
2022-12-25T20:49:01.929Z,101049.81
2022-12-25T20:51:29.029Z,101046.38
2022-12-25T20:53:56.469Z,101058.19
2022-12-25T20:56:25.980Z,101053.00
2022-12-25T20:58:58.477Z,101057.22
2022-12-25T21:01:26.507Z,101047.84
2022-12-25T21:03:54.351Z,101065.63
2022-12-25T21:06:21.806Z,101053.78
2022-12-25T21:08:48.880Z,101068.28
2022-12-25T21:11:17.653Z,101069.91
2022-12-25T21:13:46.408Z,101068.09
2022-12-25T21:16:17.353Z,101069.84
2022-12-25T21:18:44.763Z,101075.75
2022-12-25T21:21:11.871Z,101071.56
2022-12-25T21:23:40.108Z,101075.03
2022-12-25T21:26:19.976Z,101072.47
2022-12-25T21:28:48.261Z,101069.97
2022-12-25T21:31:15.830Z,101072.50
2022-12-25T21:33:52.074Z,101066.56
2022-12-25T21:36:27.423Z,101067.28
2022-12-25T21:38:56.008Z,101067.28
2022-12-25T21:41:23.644Z,101071.47
2022-12-25T21:43:50.875Z,101076.88
2022-12-25T21:46:18.428Z,101072.28
2022-12-25T21:48:45.774Z,101078.22
2022-12-25T21:51:40.675Z,101075.63
2022-12-25T21:54:08.396Z,101077.31
2022-12-25T21:56:43.605Z,101073.84
2022-12-25T21:59:17.177Z,101067.28
2022-12-25T22:01:45.102Z,101076.63
2022-12-25T22:04:14.009Z,101072.41
2022-12-25T22:07:00.311Z,101078.38
2022-12-25T22:09:27.655Z,101077.47
2022-12-25T22:12:13.609Z,101079.16
2022-12-25T22:14:56.212Z,101092.84
2022-12-25T22:17:46.255Z,101080.81
2022-12-25T22:20:31.564Z,101071.47
2022-12-25T22:22:58.804Z,101077.38
2022-12-25T22:25:27.024Z,101073.88
2022-12-25T22:27:54.088Z,101072.19
2022-12-25T22:30:24.325Z,101065.34
2022-12-25T22:32:52.052Z,101077.25
2022-12-25T22:35:19.461Z,101078.97
2022-12-25T22:37:46.955Z,101071.31
2022-12-25T22:40:16.518Z,101081.81
2022-12-25T22:42:43.619Z,101076.56
2022-12-25T22:45:11.800Z,101069.78
2022-12-25T22:47:38.913Z,101077.47
2022-12-25T22:50:06.869Z,101082.66
2022-12-25T22:52:33.900Z,101090.34
2022-12-25T22:55:01.088Z,101095.56
2022-12-25T22:57:28.281Z,101079.44
2022-12-25T22:59:55.211Z,101098.19
2022-12-25T23:02:22.437Z,101094.81
2022-12-25T23:04:49.685Z,101097.41
2022-12-25T23:07:17.260Z,101095.78
2022-12-25T23:09:45.078Z,101100.97
2022-12-25T23:12:32.306Z,101109.47
2022-12-25T23:14:59.231Z,101112.13
2022-12-25T23:17:44.763Z,101106.94
2022-12-25T23:20:33.560Z,101107.84
2022-12-25T23:23:19.810Z,101110.34
2022-12-25T23:26:05.338Z,101116.34
2022-12-25T23:28:51.005Z,101127.53
2022-12-25T23:31:18.801Z,101129.09
2022-12-25T23:33:45.747Z,101123.91
2022-12-25T23:36:12.609Z,101126.56
2022-12-25T23:38:39.711Z,101118.78
2022-12-25T23:41:07.822Z,101130.63
2022-12-25T23:43:34.723Z,101135.63
2022-12-25T23:46:01.719Z,101132.25
2022-12-25T23:48:28.669Z,101145.00
2022-12-25T23:50:56.075Z,101141.41
2022-12-25T23:53:23.082Z,101140.41
2022-12-25T23:55:55.376Z,101145.41
2022-12-25T23:58:22.852Z,101138.44
